Overview Statistics Trail Chart Weather Telemetry Raw packets
 

This is the latest recevied weather packets stored in our database for station/object DL2GPS-3. If no packets are shown the sender has not sent any weather packets the latest 10 day(s).

<< 27 28 29 30 31 32 33 >>
Time Temp. Humidity Pressure Rain* Wind** Luminosity Snow
1788287664 15° C 85% 1025.2 hPa - - - -
1788287064 15.56° C 82% 1025.2 hPa - - - -
1788286462 15.56° C 79% 1025 hPa - - - -
1788285861 16.11° C 76% 1025 hPa - - - -
1788285260 16.67° C 74% 1025 hPa - - - -
1788284659 17.22° C 71% 1024.9 hPa - - - -
1788284058 17.78° C 68% 1024.8 hPa - - - -
1788283457 18.33° C 64% 1024.8 hPa - - - -
1788282856 18.33° C 64% 1024.9 hPa - - - -
1788282255 18.89° C 62% 1025 hPa - - - -
1788281655 18.89° C 59% 1025 hPa - - - -
1788281054 19.44° C 58% 1025.1 hPa - - - -
1788280453 20° C 56% 1025.1 hPa - - - -
1788279852 20° C 55% 1025 hPa - - - -
1788279251 20.56° C 53% 1025.1 hPa - - - -
1788279006 20.56° C 52% 1025 hPa - - - -
1788278400 20.56° C 52% 1025 hPa - - - -
1788277795 20° C 52% 1025.1 hPa - - - -
1788277190 20.56° C 51% 1025.1 hPa - - - -
1788276585 20.56° C 53% 1025.1 hPa - - - -
1788275980 20.56° C 49% 1025.1 hPa - - - -
1788275375 21.67° C 50% 1025.1 hPa - - - -
1788274770 20.56° C 52% 1025 hPa - - - -
1788274165 21.67° C 47% 1025 hPa - - - -
1788273560 21.67° C 47% 1024.9 hPa - - - -

* Rain since midnight (hover to see other rain measurements)
** Current wind speed in m/s (hover to see current wind gust speed)